Post Oak, Texas
Current Conditions -  °F | °C
As of 5:55 PM on Saturday 25 Oct 2014 (Local Time) from KGYB Reporting Station
Clear Clear  
Wind Chill: 83°   Ceiling: Unl
Heat Index: 83°   Visibility: 10mi
Dew Point: 58°   Wind: 0mph
Humidity: 42%   Direction: NA
Pressure: 30.12"   Gusts: NA
Location:  30.2279°N, 96.7713°W
Report Text: KGYB 252255Z AUTO 00000KT 10SM CLR 29/15 A3012 RMK AO2 T02850146
Loading
Personal Weather Stations






























Interactive Weather Map
Tropical Storm Tracking
New forecast layout! Learn more

10-Day Weather Forecast

Advertisements
Track Severe Weather on mobile